sensor_id;sensor_type;location;lat;lon;timestamp;pressure;altitude;pressure_sealevel;temperature;humidity
54980;BME280;44101;50.462;30.432;2022-07-23T00:01:25;97819.91;;;18.58;54.18
54980;BME280;44101;50.462;30.432;2022-07-23T00:03:52;97821.53;;;18.53;54.50
54980;BME280;44101;50.462;30.432;2022-07-23T00:06:19;97833.56;;;18.52;54.44
54980;BME280;44101;50.462;30.432;2022-07-23T00:08:45;97844.72;;;18.51;54.20
54980;BME280;44101;50.462;30.432;2022-07-23T00:11:11;97848.56;;;18.50;54.24
54980;BME280;44101;50.462;30.432;2022-07-23T00:13:37;97854.53;;;18.47;53.93
54980;BME280;44101;50.462;30.432;2022-07-23T00:16:03;97859.97;;;18.47;54.71
54980;BME280;44101;50.462;30.432;2022-07-23T00:18:29;97870.34;;;18.45;54.76
54980;BME280;44101;50.462;30.432;2022-07-23T00:20:54;97872.50;;;18.42;54.39
54980;BME280;44101;50.462;30.432;2022-07-23T00:23:20;97888.06;;;18.42;54.54
54980;BME280;44101;50.462;30.432;2022-07-23T00:25:46;97896.25;;;18.42;55.28
54980;BME280;44101;50.462;30.432;2022-07-23T00:28:12;97898.41;;;18.40;55.55
54980;BME280;44101;50.462;30.432;2022-07-23T00:30:38;97915.06;;;18.38;55.26
54980;BME280;44101;50.462;30.432;2022-07-23T00:33:06;97919.94;;;18.36;55.30
54980;BME280;44101;50.462;30.432;2022-07-23T00:35:35;97922.13;;;18.34;55.96
54980;BME280;44101;50.462;30.432;2022-07-23T00:38:03;97926.19;;;18.32;55.81
54980;BME280;44101;50.462;30.432;2022-07-23T00:40:29;97924.81;;;18.29;55.85
54980;BME280;44101;50.462;30.432;2022-07-23T00:42:55;97931.59;;;18.26;55.53
54980;BME280;44101;50.462;30.432;2022-07-23T00:45:21;97934.59;;;18.25;55.70
54980;BME280;44101;50.462;30.432;2022-07-23T00:47:47;97937.00;;;18.21;56.16
54980;BME280;44101;50.462;30.432;2022-07-23T00:50:13;97924.41;;;18.15;56.62
54980;BME280;44101;50.462;30.432;2022-07-23T00:52:40;97909.06;;;18.09;56.12
54980;BME280;44101;50.462;30.432;2022-07-23T00:55:07;97905.22;;;18.05;56.02
54980;BME280;44101;50.462;30.432;2022-07-23T00:57:34;97904.06;;;18.00;56.31
54980;BME280;44101;50.462;30.432;2022-07-23T01:00:00;97906.50;;;17.97;56.63
54980;BME280;44101;50.462;30.432;2022-07-23T01:02:27;97901.53;;;17.94;57.21
54980;BME280;44101;50.462;30.432;2022-07-23T01:04:53;97893.59;;;17.87;57.35
54980;BME280;44101;50.462;30.432;2022-07-23T01:07:19;97876.34;;;17.81;56.80
54980;BME280;44101;50.462;30.432;2022-07-23T01:09:45;97867.28;;;17.75;57.31
54980;BME280;44101;50.462;30.432;2022-07-23T01:12:12;97863.69;;;17.70;56.97
54980;BME280;44101;50.462;30.432;2022-07-23T01:14:38;97875.66;;;17.69;56.93
54980;BME280;44101;50.462;30.432;2022-07-23T01:17:04;97907.59;;;17.73;57.62
54980;BME280;44101;50.462;30.432;2022-07-23T01:19:30;97926.44;;;17.75;57.75
54980;BME280;44101;50.462;30.432;2022-07-23T01:21:58;97952.63;;;17.76;57.91
54980;BME280;44101;50.462;30.432;2022-07-23T01:24:27;97952.91;;;17.74;58.27
54980;BME280;44101;50.462;30.432;2022-07-23T01:27:11;97966.53;;;17.74;58.66
54980;BME280;44101;50.462;30.432;2022-07-23T01:29:38;97970.59;;;17.72;58.22
54980;BME280;44101;50.462;30.432;2022-07-23T01:32:10;97990.50;;;17.72;58.92
54980;BME280;44101;50.462;30.432;2022-07-23T01:34:35;97992.41;;;17.72;59.05
54980;BME280;44101;50.462;30.432;2022-07-23T01:37:01;98008.78;;;17.72;59.17
54980;BME280;44101;50.462;30.432;2022-07-23T01:39:28;98011.19;;;17.68;59.20
54980;BME280;44101;50.462;30.432;2022-07-23T01:41:53;98020.69;;;17.66;58.62
54980;BME280;44101;50.462;30.432;2022-07-23T01:44:20;98031.59;;;17.66;58.74
54980;BME280;44101;50.462;30.432;2022-07-23T01:46:46;98028.28;;;17.64;59.06
54980;BME280;44101;50.462;30.432;2022-07-23T01:49:12;98032.09;;;17.63;59.64
54980;BME280;44101;50.462;30.432;2022-07-23T01:51:56;98039.72;;;17.60;60.28
54980;BME280;44101;50.462;30.432;2022-07-23T01:54:31;98047.28;;;17.58;59.56
54980;BME280;44101;50.462;30.432;2022-07-23T01:56:58;98055.75;;;17.57;60.49
54980;BME280;44101;50.462;30.432;2022-07-23T01:59:24;98062.84;;;17.58;60.28
54980;BME280;44101;50.462;30.432;2022-07-23T02:01:50;98082.19;;;17.56;60.18
54980;BME280;44101;50.462;30.432;2022-07-23T02:04:18;98087.63;;;17.56;60.96
54980;BME280;44101;50.462;30.432;2022-07-23T02:06:43;98095.81;;;17.56;60.92
54980;BME280;44101;50.462;30.432;2022-07-23T02:09:09;98114.66;;;17.58;61.33
54980;BME280;44101;50.462;30.432;2022-07-23T02:11:35;98141.38;;;17.61;61.44
54980;BME280;44101;50.462;30.432;2022-07-23T02:14:00;98156.44;;;17.64;61.18
54980;BME280;44101;50.462;30.432;2022-07-23T02:16:26;98179.63;;;17.66;61.69
54980;BME280;44101;50.462;30.432;2022-07-23T02:18:52;98192.19;;;17.67;61.57
54980;BME280;44101;50.462;30.432;2022-07-23T02:21:18;98211.03;;;17.69;61.51
54980;BME280;44101;50.462;30.432;2022-07-23T02:23:43;98216.25;;;17.70;62.10
54980;BME280;44101;50.462;30.432;2022-07-23T02:26:09;98238.63;;;17.72;61.80
54980;BME280;44101;50.462;30.432;2022-07-23T02:28:35;98270.03;;;17.75;61.55
54980;BME280;44101;50.462;30.432;2022-07-23T02:31:01;98285.91;;;17.78;62.05
54980;BME280;44101;50.462;30.432;2022-07-23T02:33:27;98299.03;;;17.81;61.79
54980;BME280;44101;50.462;30.432;2022-07-23T02:35:53;98325.81;;;17.84;61.82
54980;BME280;44101;50.462;30.432;2022-07-23T02:38:20;98334.00;;;17.84;62.88
54980;BME280;44101;50.462;30.432;2022-07-23T02:40:46;98345.50;;;17.86;62.83
54980;BME280;44101;50.462;30.432;2022-07-23T02:43:12;98362.44;;;17.88;62.62
54980;BME280;44101;50.462;30.432;2022-07-23T02:45:38;98383.78;;;17.92;62.29
54980;BME280;44101;50.462;30.432;2022-07-23T02:48:04;98393.59;;;17.93;62.83
54980;BME280;44101;50.462;30.432;2022-07-23T02:50:30;98408.88;;;17.94;62.83
54980;BME280;44101;50.462;30.432;2022-07-23T02:52:58;98428.81;;;17.94;63.00
54980;BME280;44101;50.462;30.432;2022-07-23T02:55:24;98446.59;;;17.97;62.68
54980;BME280;44101;50.462;30.432;2022-07-23T02:57:52;98461.41;;;18.01;63.34
54980;BME280;44101;50.462;30.432;2022-07-23T03:00:18;98485.25;;;18.06;62.93
54980;BME280;44101;50.462;30.432;2022-07-23T03:02:44;98515.38;;;18.11;63.22
54980;BME280;44101;50.462;30.432;2022-07-23T03:05:10;98539.19;;;18.15;63.20
54980;BME280;44101;50.462;30.432;2022-07-23T03:07:36;98573.94;;;18.20;63.13
54980;BME280;44101;50.462;30.432;2022-07-23T03:10:03;98597.50;;;18.26;63.91
54980;BME280;44101;50.462;30.432;2022-07-23T03:12:29;98624.69;;;18.33;63.25
54980;BME280;44101;50.462;30.432;2022-07-23T03:14:55;98651.81;;;18.40;63.82
54980;BME280;44101;50.462;30.432;2022-07-23T03:17:21;98669.63;;;18.42;63.88
54980;BME280;44101;50.462;30.432;2022-07-23T03:19:46;98688.25;;;18.46;63.58
54980;BME280;44101;50.462;30.432;2022-07-23T03:22:12;98721.13;;;18.51;64.03
54980;BME280;44101;50.462;30.432;2022-07-23T03:24:37;98729.66;;;18.54;63.80
54980;BME280;44101;50.462;30.432;2022-07-23T03:27:34;98739.84;;;18.59;64.04
54980;BME280;44101;50.462;30.432;2022-07-23T03:30:00;98781.75;;;18.65;64.00
54980;BME280;44101;50.462;30.432;2022-07-23T03:32:26;98802.88;;;18.69;64.11
54980;BME280;44101;50.462;30.432;2022-07-23T03:34:52;98833.03;;;18.75;64.14
54980;BME280;44101;50.462;30.432;2022-07-23T03:37:19;98847.03;;;18.78;64.20
54980;BME280;44101;50.462;30.432;2022-07-23T03:39:46;98864.34;;;18.84;64.34
54980;BME280;44101;50.462;30.432;2022-07-23T03:42:12;98890.13;;;18.88;63.76
54980;BME280;44101;50.462;30.432;2022-07-23T03:44:38;98907.44;;;18.94;64.42
54980;BME280;44101;50.462;30.432;2022-07-23T03:47:05;98930.50;;;18.98;64.09
54980;BME280;44101;50.462;30.432;2022-07-23T03:49:31;98933.00;;;19.00;64.27
54980;BME280;44101;50.462;30.432;2022-07-23T03:51:57;98943.94;;;19.00;64.01
54980;BME280;44101;50.462;30.432;2022-07-23T03:54:22;98955.25;;;19.03;63.50
54980;BME280;44101;50.462;30.432;2022-07-23T03:56:48;98947.25;;;19.02;63.61
54980;BME280;44101;50.462;30.432;2022-07-23T03:59:14;98943.94;;;19.00;64.14
54980;BME280;44101;50.462;30.432;2022-07-23T04:01:40;98937.38;;;19.01;63.56
54980;BME280;44101;50.462;30.432;2022-07-23T04:04:06;98960.72;;;19.03;64.31
54980;BME280;44101;50.462;30.432;2022-07-23T04:06:35;98990.38;;;19.12;63.68
54980;BME280;44101;50.462;30.432;2022-07-23T04:09:01;99022.00;;;19.19;63.50
54980;BME280;44101;50.462;30.432;2022-07-23T04:11:28;99058.00;;;19.28;63.86
54980;BME280;44101;50.462;30.432;2022-07-23T04:13:54;99103.06;;;19.38;64.44
54980;BME280;44101;50.462;30.432;2022-07-23T04:16:20;99126.47;;;19.45;64.12
54980;BME280;44101;50.462;30.432;2022-07-23T04:18:46;99160.81;;;19.53;64.00
54980;BME280;44101;50.462;30.432;2022-07-23T04:21:16;99193.31;;;19.61;63.46
54980;BME280;44101;50.462;30.432;2022-07-23T04:23:41;99215.28;;;19.67;64.25
54980;BME280;44101;50.462;30.432;2022-07-23T04:26:07;99247.56;;;19.76;63.66
54980;BME280;44101;50.462;30.432;2022-07-23T04:28:33;99270.97;;;19.84;63.81
54980;BME280;44101;50.462;30.432;2022-07-23T04:31:00;99301.31;;;19.95;64.07
54980;BME280;44101;50.462;30.432;2022-07-23T04:33:28;99352.16;;;20.02;64.14
54980;BME280;44101;50.462;30.432;2022-07-23T04:35:56;99374.78;;;20.10;63.87
54980;BME280;44101;50.462;30.432;2022-07-23T04:38:23;99398.25;;;20.18;63.76
54980;BME280;44101;50.462;30.432;2022-07-23T04:40:52;99432.41;;;20.27;63.67
54980;BME280;44101;50.462;30.432;2022-07-23T04:43:19;99437.41;;;20.30;63.39
54980;BME280;44101;50.462;30.432;2022-07-23T04:45:49;99447.66;;;20.35;64.07
54980;BME280;44101;50.462;30.432;2022-07-23T04:48:14;99487.09;;;20.46;63.58
54980;BME280;44101;50.462;30.432;2022-07-23T04:50:41;99536.41;;;20.58;63.18
54980;BME280;44101;50.462;30.432;2022-07-23T04:53:14;99583.84;;;20.70;63.49
54980;BME280;44101;50.462;30.432;2022-07-23T04:55:41;99614.25;;;20.80;63.25
54980;BME280;44101;50.462;30.432;2022-07-23T04:58:07;99635.03;;;20.88;63.19
54980;BME280;44101;50.462;30.432;2022-07-23T05:00:33;99652.44;;;20.94;63.55
54980;BME280;44101;50.462;30.432;2022-07-23T05:02:58;99674.28;;;21.01;63.16
54980;BME280;44101;50.462;30.432;2022-07-23T05:05:24;99703.00;;;21.10;63.41
54980;BME280;44101;50.462;30.432;2022-07-23T05:07:53;99728.41;;;21.17;62.93
54980;BME280;44101;50.462;30.432;2022-07-23T05:10:19;99750.25;;;21.24;63.45
54980;BME280;44101;50.462;30.432;2022-07-23T05:12:44;99777.94;;;21.34;62.82
54980;BME280;44101;50.462;30.432;2022-07-23T05:15:10;99816.59;;;21.45;62.65
54980;BME280;44101;50.462;30.432;2022-07-23T05:17:36;99839.88;;;21.54;62.72
54980;BME280;44101;50.462;30.432;2022-07-23T05:20:06;99882.13;;;21.65;63.12
54980;BME280;44101;50.462;30.432;2022-07-23T05:22:32;99905.69;;;21.73;62.95
54980;BME280;44101;50.462;30.432;2022-07-23T05:25:00;99922.44;;;21.83;62.63
54980;BME280;44101;50.462;30.432;2022-07-23T05:27:26;99945.34;;;21.89;62.84
54980;BME280;44101;50.462;30.432;2022-07-23T05:29:52;99963.41;;;21.97;62.71
54980;BME280;44101;50.462;30.432;2022-07-23T05:32:17;99983.13;;;22.06;62.49
54980;BME280;44101;50.462;30.432;2022-07-23T05:34:54;100012.75;;;22.15;62.40
54980;BME280;44101;50.462;30.432;2022-07-23T05:37:20;100018.38;;;22.21;62.37
54980;BME280;44101;50.462;30.432;2022-07-23T05:39:45;100022.34;;;22.25;61.65
54980;BME280;44101;50.462;30.432;2022-07-23T05:42:12;100040.38;;;22.33;61.63
54980;BME280;44101;50.462;30.432;2022-07-23T05:44:40;100097.63;;;22.48;61.72
54980;BME280;44101;50.462;30.432;2022-07-23T05:47:06;100137.03;;;22.60;61.97
54980;BME280;44101;50.462;30.432;2022-07-23T05:50:34;100135.47;;;22.64;61.03
54980;BME280;44101;50.462;30.432;2022-07-23T05:53:20;100151.63;;;22.73;61.38
54980;BME280;44101;50.462;30.432;2022-07-23T05:56:08;100185.50;;;22.85;60.99
54980;BME280;44101;50.462;30.432;2022-07-23T05:58:35;100151.88;;;22.83;60.65
54980;BME280;44101;50.462;30.432;2022-07-23T06:01:01;100155.59;;;22.89;61.14
54980;BME280;44101;50.462;30.432;2022-07-23T06:03:34;100176.44;;;22.96;60.47
54980;BME280;44101;50.462;30.432;2022-07-23T06:06:00;100174.25;;;22.98;60.23
54980;BME280;44101;50.462;30.432;2022-07-23T06:08:26;100194.59;;;23.09;60.35
54980;BME280;44101;50.462;30.432;2022-07-23T06:10:52;100213.75;;;23.16;60.44
54980;BME280;44101;50.462;30.432;2022-07-23T06:13:18;100224.63;;;23.23;59.77
54980;BME280;44101;50.462;30.432;2022-07-23T06:15:44;100234.94;;;23.28;59.93
54980;BME280;44101;50.462;30.432;2022-07-23T06:18:10;100247.78;;;23.34;59.42
54980;BME280;44101;50.462;30.432;2022-07-23T06:20:38;100260.09;;;23.43;59.42
54980;BME280;44101;50.462;30.432;2022-07-23T06:23:03;100274.00;;;23.48;59.58
54980;BME280;44101;50.462;30.432;2022-07-23T06:25:29;100262.53;;;23.51;58.87
54980;BME280;44101;50.462;30.432;2022-07-23T06:27:55;100239.88;;;23.49;59.03
54980;BME280;44101;50.462;30.432;2022-07-23T06:30:21;100231.16;;;23.53;58.78
54980;BME280;44101;50.462;30.432;2022-07-23T06:32:47;100250.06;;;23.61;58.71
54980;BME280;44101;50.462;30.432;2022-07-23T06:35:14;100274.22;;;23.71;58.13
54980;BME280;44101;50.462;30.432;2022-07-23T06:37:40;100296.50;;;23.81;57.87
54980;BME280;44101;50.462;30.432;2022-07-23T06:40:06;100294.34;;;23.83;58.12
54980;BME280;44101;50.462;30.432;2022-07-23T06:42:35;100290.03;;;23.87;57.84
54980;BME280;44101;50.462;30.432;2022-07-23T06:45:05;100310.38;;;23.98;57.72
54980;BME280;44101;50.462;30.432;2022-07-23T06:47:33;100367.53;;;24.15;57.52
54980;BME280;44101;50.462;30.432;2022-07-23T06:50:00;100432.47;;;24.35;56.94
54980;BME280;44101;50.462;30.432;2022-07-23T06:52:26;100470.84;;;24.48;56.83
54980;BME280;44101;50.462;30.432;2022-07-23T06:54:52;100465.41;;;24.53;56.78
54980;BME280;44101;50.462;30.432;2022-07-23T06:57:17;100448.28;;;24.51;57.03
54980;BME280;44101;50.462;30.432;2022-07-23T06:59:43;100414.38;;;24.51;56.23
54980;BME280;44101;50.462;30.432;2022-07-23T07:02:09;100394.22;;;24.50;56.11
54980;BME280;44101;50.462;30.432;2022-07-23T07:04:35;100380.22;;;24.52;56.04
54980;BME280;44101;50.462;30.432;2022-07-23T07:07:01;100366.16;;;24.53;55.50
54980;BME280;44101;50.462;30.432;2022-07-23T07:09:27;100359.59;;;24.54;55.43
54980;BME280;44101;50.462;30.432;2022-07-23T07:11:53;100355.50;;;24.57;55.47
54980;BME280;44101;50.462;30.432;2022-07-23T07:14:18;100330.69;;;24.57;54.90
54980;BME280;44101;50.462;30.432;2022-07-23T07:16:44;100298.94;;;24.54;54.91
54980;BME280;44101;50.462;30.432;2022-07-23T07:19:10;100256.03;;;24.47;54.92
54980;BME280;44101;50.462;30.432;2022-07-23T07:21:35;100269.66;;;24.53;54.99
54980;BME280;44101;50.462;30.432;2022-07-23T07:24:01;100261.75;;;24.57;54.45
54980;BME280;44101;50.462;30.432;2022-07-23T07:26:27;100249.03;;;24.56;54.80
54980;BME280;44101;50.462;30.432;2022-07-23T07:28:53;100215.59;;;24.52;54.41
54980;BME280;44101;50.462;30.432;2022-07-23T07:31:19;100201.00;;;24.52;54.53
54980;BME280;44101;50.462;30.432;2022-07-23T07:33:44;100207.44;;;24.57;54.29
54980;BME280;44101;50.462;30.432;2022-07-23T07:36:10;100182.03;;;24.55;53.92
54980;BME280;44101;50.462;30.432;2022-07-23T07:38:36;100143.34;;;24.50;54.35
54980;BME280;44101;50.462;30.432;2022-07-23T07:41:02;100178.28;;;24.62;53.44
54980;BME280;44101;50.462;30.432;2022-07-23T07:43:27;100236.22;;;24.79;53.88
54980;BME280;44101;50.462;30.432;2022-07-23T07:45:53;100308.59;;;24.98;54.03
54980;BME280;44101;50.462;30.432;2022-07-23T07:48:19;100366.34;;;25.17;53.15
54980;BME280;44101;50.462;30.432;2022-07-23T07:50:44;100337.56;;;25.12;53.67
54980;BME280;44101;50.462;30.432;2022-07-23T07:53:10;100313.56;;;25.13;53.13
54980;BME280;44101;50.462;30.432;2022-07-23T07:55:35;100259.03;;;25.03;52.97
54980;BME280;44101;50.462;30.432;2022-07-23T07:58:01;100285.13;;;25.12;52.98
54980;BME280;44101;50.462;30.432;2022-07-23T08:00:28;100368.63;;;25.37;52.67
54980;BME280;44101;50.462;30.432;2022-07-23T08:02:54;100433.38;;;25.58;52.52
54980;BME280;44101;50.462;30.432;2022-07-23T08:07:46;100449.03;;;25.70;52.66
54980;BME280;44101;50.462;30.432;2022-07-23T08:10:12;100409.19;;;25.65;52.16
54980;BME280;44101;50.462;30.432;2022-07-23T08:12:42;100352.94;;;25.55;52.33
54980;BME280;44101;50.462;30.432;2022-07-23T08:15:10;100331.44;;;25.57;51.80
54980;BME280;44101;50.462;30.432;2022-07-23T08:17:37;100345.56;;;25.60;51.48
54980;BME280;44101;50.462;30.432;2022-07-23T08:20:04;100285.22;;;25.52;52.11
54980;BME280;44101;50.462;30.432;2022-07-23T08:22:44;100255.34;;;25.49;51.87
54980;BME280;44101;50.462;30.432;2022-07-23T08:25:10;100309.75;;;25.65;51.78
54980;BME280;44101;50.462;30.432;2022-07-23T08:27:36;100344.22;;;25.80;51.41
54980;BME280;44101;50.462;30.432;2022-07-23T08:30:01;100343.72;;;25.83;51.22
54980;BME280;44101;50.462;30.432;2022-07-23T08:32:27;100349.56;;;25.87;51.31
54980;BME280;44101;50.462;30.432;2022-07-23T08:34:54;100365.72;;;25.95;51.29
54980;BME280;44101;50.462;30.432;2022-07-23T08:37:20;100397.94;;;26.06;51.22
54980;BME280;44101;50.462;30.432;2022-07-23T08:39:46;100398.03;;;26.12;50.92
54980;BME280;44101;50.462;30.432;2022-07-23T08:42:13;100390.06;;;26.15;50.47
54980;BME280;44101;50.462;30.432;2022-07-23T08:44:42;100351.03;;;26.12;50.66
54980;BME280;44101;50.462;30.432;2022-07-23T08:47:13;100320.56;;;26.06;50.61
54980;BME280;44101;50.462;30.432;2022-07-23T08:49:41;100341.41;;;26.14;50.37
54980;BME280;44101;50.462;30.432;2022-07-23T08:52:07;100295.19;;;26.10;50.28
54980;BME280;44101;50.462;30.432;2022-07-23T08:54:34;100209.59;;;25.92;50.03
54980;BME280;44101;50.462;30.432;2022-07-23T08:57:00;100182.47;;;25.89;49.60
54980;BME280;44101;50.462;30.432;2022-07-23T08:59:25;100190.56;;;25.96;49.46
54980;BME280;44101;50.462;30.432;2022-07-23T09:01:52;100229.97;;;26.09;49.41
54980;BME280;44101;50.462;30.432;2022-07-23T09:04:17;100256.66;;;26.20;49.73
54980;BME280;44101;50.462;30.432;2022-07-23T09:06:43;100327.13;;;26.40;49.04
54980;BME280;44101;50.462;30.432;2022-07-23T09:09:19;100403.72;;;26.62;48.70
54980;BME280;44101;50.462;30.432;2022-07-23T09:11:46;100394.34;;;26.63;49.03
54980;BME280;44101;50.462;30.432;2022-07-23T09:14:12;100362.75;;;26.58;49.26
54980;BME280;44101;50.462;30.432;2022-07-23T09:16:38;100313.44;;;26.50;48.63
54980;BME280;44101;50.462;30.432;2022-07-23T09:19:05;100334.56;;;26.62;48.75
54980;BME280;44101;50.462;30.432;2022-07-23T09:21:36;100356.25;;;26.70;48.42
54980;BME280;44101;50.462;30.432;2022-07-23T09:26:33;100373.31;;;26.84;48.65
54980;BME280;44101;50.462;30.432;2022-07-23T09:29:19;100409.16;;;26.96;48.42
54980;BME280;44101;50.462;30.432;2022-07-23T09:31:52;100417.84;;;27.05;48.19
54980;BME280;44101;50.462;30.432;2022-07-23T09:34:29;100353.50;;;26.92;47.54
54980;BME280;44101;50.462;30.432;2022-07-23T09:37:13;100225.94;;;26.66;47.69
54980;BME280;44101;50.462;30.432;2022-07-23T09:39:39;100112.63;;;26.44;47.72
54980;BME280;44101;50.462;30.432;2022-07-23T09:42:21;100104.03;;;26.45;47.90
54980;BME280;44101;50.462;30.432;2022-07-23T09:44:54;100193.88;;;26.70;47.65
54980;BME280;44101;50.462;30.432;2022-07-23T09:47:24;100268.81;;;26.91;47.35
54980;BME280;44101;50.462;30.432;2022-07-23T09:50:10;100330.97;;;27.11;47.09
54980;BME280;44101;50.462;30.432;2022-07-23T09:52:49;100369.91;;;27.26;47.17
54980;BME280;44101;50.462;30.432;2022-07-23T09:55:16;100379.94;;;27.33;46.78
54980;BME280;44101;50.462;30.432;2022-07-23T09:57:43;100363.31;;;27.33;46.77
54980;BME280;44101;50.462;30.432;2022-07-23T10:00:15;100393.59;;;27.45;46.67
54980;BME280;44101;50.462;30.432;2022-07-23T10:02:41;100358.13;;;27.42;46.09
54980;BME280;44101;50.462;30.432;2022-07-23T10:05:31;100280.19;;;27.28;46.23
54980;BME280;44101;50.462;30.432;2022-07-23T10:08:21;100266.34;;;27.28;46.51
54980;BME280;44101;50.462;30.432;2022-07-23T10:11:27;100201.50;;;27.18;46.36
54980;BME280;44101;50.462;30.432;2022-07-23T10:14:02;100200.97;;;27.21;45.54
54980;BME280;44101;50.462;30.432;2022-07-23T10:16:56;100140.53;;;27.13;45.88
54980;BME280;44101;50.462;30.432;2022-07-23T10:19:22;100141.13;;;27.15;45.67
54980;BME280;44101;50.462;30.432;2022-07-23T10:21:52;100086.00;;;27.08;45.65
54980;BME280;44101;50.462;30.432;2022-07-23T10:24:36;100135.34;;;27.22;45.25
54980;BME280;44101;50.462;30.432;2022-07-23T10:30:04;100200.31;;;27.47;45.23
54980;BME280;44101;50.462;30.432;2022-07-23T10:35:36;100300.28;;;27.78;44.68
54980;BME280;44101;50.462;30.432;2022-07-23T10:38:20;100296.69;;;27.83;44.57
54980;BME280;44101;50.462;30.432;2022-07-23T10:41:02;100285.34;;;27.84;44.87
54980;BME280;44101;50.462;30.432;2022-07-23T10:43:29;100324.50;;;27.98;45.00
54980;BME280;44101;50.462;30.432;2022-07-23T10:45:56;100334.53;;;28.04;44.49
54980;BME280;44101;50.462;30.432;2022-07-23T10:48:26;100312.34;;;28.04;44.29
54980;BME280;44101;50.462;30.432;2022-07-23T10:51:09;100317.88;;;28.10;44.70
54980;BME280;44101;50.462;30.432;2022-07-23T10:53:57;100294.91;;;28.09;44.25
54980;BME280;44101;50.462;30.432;2022-07-23T10:59:20;100184.22;;;27.92;44.11
54980;BME280;44101;50.462;30.432;2022-07-23T11:01:46;100136.81;;;27.83;44.11
54980;BME280;44101;50.462;30.432;2022-07-23T11:04:12;100101.59;;;27.78;43.80
54980;BME280;44101;50.462;30.432;2022-07-23T11:09:27;100161.53;;;28.00;44.03
54980;BME280;44101;50.462;30.432;2022-07-23T11:17:40;100316.19;;;28.52;43.37
54980;BME280;44101;50.462;30.432;2022-07-23T11:20:24;100402.56;;;28.76;43.29
54980;BME280;44101;50.462;30.432;2022-07-23T11:22:52;100440.66;;;28.91;43.33
54980;BME280;44101;50.462;30.432;2022-07-23T11:27:50;100466.56;;;29.07;42.93
54980;BME280;44101;50.462;30.432;2022-07-23T11:35:42;100242.16;;;28.68;42.70
54980;BME280;44101;50.462;30.432;2022-07-23T11:38:16;100171.38;;;28.55;42.51
54980;BME280;44101;50.462;30.432;2022-07-23T11:40:46;100214.94;;;28.70;42.34
54980;BME280;44101;50.462;30.432;2022-07-23T11:43:12;100240.50;;;28.77;42.37
54980;BME280;44101;50.462;30.432;2022-07-23T11:45:40;100317.75;;;29.01;42.33
54980;BME280;44101;50.462;30.432;2022-07-23T11:48:08;100426.09;;;29.32;42.40
54980;BME280;44101;50.462;30.432;2022-07-23T11:50:35;100501.69;;;29.55;42.19
54980;BME280;44101;50.462;30.432;2022-07-23T11:53:00;100583.47;;;29.80;41.88
54980;BME280;44101;50.462;30.432;2022-07-23T11:55:26;100686.47;;;30.11;41.92
54980;BME280;44101;50.462;30.432;2022-07-23T11:57:54;100686.19;;;30.18;41.64
54980;BME280;44101;50.462;30.432;2022-07-23T12:00:24;100674.78;;;30.19;41.85
54980;BME280;44101;50.462;30.432;2022-07-23T12:02:53;100681.75;;;30.27;41.02
54980;BME280;44101;50.462;30.432;2022-07-23T12:05:23;100717.13;;;30.42;41.39
54980;BME280;44101;50.462;30.432;2022-07-23T12:07:54;100712.38;;;30.48;41.12
54980;BME280;44101;50.462;30.432;2022-07-23T12:10:26;100676.78;;;30.45;40.84
54980;BME280;44101;50.462;30.432;2022-07-23T12:12:59;100708.50;;;30.59;40.98
54980;BME280;44101;50.462;30.432;2022-07-23T12:15:27;100812.69;;;30.90;40.72
54980;BME280;44101;50.462;30.432;2022-07-23T12:17:55;100764.25;;;30.85;40.44
54980;BME280;44101;50.462;30.432;2022-07-23T12:20:26;100829.97;;;31.07;40.29
54980;BME280;44101;50.462;30.432;2022-07-23T12:22:56;101178.31;;;31.97;40.15
54980;BME280;44101;50.462;30.432;2022-07-23T12:25:24;101457.94;;;32.73;40.01
54980;BME280;44101;50.462;30.432;2022-07-23T12:30:40;101129.78;;;32.14;39.67
54980;BME280;44101;50.462;30.432;2022-07-23T12:33:08;100795.44;;;31.45;39.75
54980;BME280;44101;50.462;30.432;2022-07-23T12:35:42;100507.28;;;30.80;39.18
54980;BME280;44101;50.462;30.432;2022-07-23T12:38:20;100251.47;;;30.23;39.30
54980;BME280;44101;50.462;30.432;2022-07-23T12:43:42;100249.75;;;30.32;38.82
54980;BME280;44101;50.462;30.432;2022-07-23T12:46:11;100754.72;;;31.59;38.83
54980;BME280;44101;50.462;30.432;2022-07-23T12:49:00;101223.63;;;32.77;39.17
54980;BME280;44101;50.462;30.432;2022-07-23T12:51:30;101630.41;;;33.84;38.21
54980;BME280;44101;50.462;30.432;2022-07-23T12:56:29;101406.69;;;33.52;37.92
54980;BME280;44101;50.462;30.432;2022-07-23T13:06:25;101452.44;;;34.03;36.99
54980;BME280;44101;50.462;30.432;2022-07-23T13:08:51;101722.31;;;34.75;36.53
54980;BME280;44101;50.462;30.432;2022-07-23T13:11:17;102018.56;;;35.58;36.45
54980;BME280;44101;50.462;30.432;2022-07-23T13:13:42;102191.25;;;36.12;36.00
54980;BME280;44101;50.462;30.432;2022-07-23T13:16:08;102287.00;;;36.47;35.70
54980;BME280;44101;50.462;30.432;2022-07-23T13:18:34;102325.78;;;36.71;34.89
54980;BME280;44101;50.462;30.432;2022-07-23T13:20:59;102288.13;;;36.77;34.98
54980;BME280;44101;50.462;30.432;2022-07-23T13:23:25;102508.81;;;37.42;34.45
54980;BME280;44101;50.462;30.432;2022-07-23T13:25:52;102663.63;;;37.94;33.85
54980;BME280;44101;50.462;30.432;2022-07-23T13:28:19;102783.88;;;38.35;33.77
54980;BME280;44101;50.462;30.432;2022-07-23T13:30:45;102741.34;;;38.42;33.79
54980;BME280;44101;50.462;30.432;2022-07-23T13:33:13;102739.38;;;38.58;33.05
54980;BME280;44101;50.462;30.432;2022-07-23T13:35:38;102766.34;;;38.80;32.84
54980;BME280;44101;50.462;30.432;2022-07-23T13:38:04;102852.59;;;39.17;32.75